Latest Weather Observations for West Roebuck

IDW60801

Issued at 7:02 am WST Saturday 5 September 2015 (issued every 30 minutes, with the page automatically refreshed every 10 minutes)

About weather observations | Map of weather stations | Latest weather observations for WA | Other Formats
Station Details ID: 003096 Name: WEST ROEBUCK Lat: -17.90 Lon: 122.31 Height: 32.0 m
Data from the previous 72 hours. | See also: Recent months at West Roebuck
Date/Time
WST
Temp
°C
App
Temp
°C
Dew
Point
Rel
Hum
%
Delta-T
°C
Wind Press
QNH
hPa
Press
MSL
hPa
Rain
since 9 am
mm
Dir
 
Spd
km/h
Gust
km/h
Spd
kts
Gust
kts
05/07:00am 19.7 - - - - ENE 6 7 3 4 - - 0.0
05/06:30am 18.1 - - - - NE 7 9 4 5 - - 0.0
05/06:00am 17.6 - - - - ENE 7 9 4 5 - - 0.0
05/05:30am 18.2 - - - - CALM 0 0 0 0 - - 0.0
05/05:00am 19.3 - - - - SE 4 6 2 3 - - 0.0
05/04:30am 20.4 - - - - SSE 7 9 4 5 - - 0.0
05/04:00am 21.0 - - - - S 11 17 6 9 - - 0.0
05/03:30am 20.8 - - - - SSW 13 19 7 10 - - 0.0
05/03:00am 21.0 - - - - S 9 13 5 7 - - 0.0
05/02:30am 21.0 - - - - SW 13 20 7 11 - - 0.0
05/02:00am 21.2 - - - - SSW 15 20 8 11 - - 0.0
05/01:30am 20.5 - - - - S 13 19 7 10 - - 0.0
05/01:00am 18.9 - - - - S 9 11 5 6 - - 0.0
05/12:30am 18.5 - - - - SSW 9 11 5 6 - - 0.0
05/12:00am 18.4 - - - - SSW 11 13 6 7 - - 0.0
 
Date/Time
WST
Temp
°C
App
Temp
°C
Dew
Point
Rel
Hum
%
Delta-T
°C
Wind Press
QNH
hPa
Press
MSL
hPa
Rain
since 9 am
mm
Dir
 
Spd
km/h
Gust
km/h
Spd
kts
Gust
kts
04/11:30pm 18.4 - - - - WNW 6 7 3 4 - - 0.0
04/11:00pm 18.5 - - - - WNW 6 6 3 3 - - 0.0
04/10:30pm 18.7 - - - - NNW 9 9 5 5 - - 0.0
04/10:00pm 19.2 - - - - N 7 9 4 5 - - 0.0
04/09:30pm 19.5 - - - - NNW 9 11 5 6 - - 0.0
04/09:00pm 19.4 - - - - NNW 9 11 5 6 - - 0.0
04/08:30pm 20.2 - - - - NNW 9 9 5 5 - - 0.0
04/08:00pm 20.4 - - - - WNW 6 7 3 4 - - 0.0
04/07:30pm 21.2 - - - - WNW 9 11 5 6 - - 0.0
04/07:00pm 22.9 - - - - WSW 9 13 5 7 - - 0.0
04/06:30pm 23.6 - - - - WSW 9 15 5 8 - - 0.0
04/06:00pm 24.5 - - - - WSW 11 13 6 7 - - 0.0
04/05:30pm 26.0 - - - - WSW 13 20 7 11 - - 0.0
04/05:00pm 27.5 - - - - WSW 19 28 10 15 - - 0.0
04/04:30pm 29.0 - - - - WSW 17 26 9 14 - - 0.0
04/04:00pm 31.1 - - - - SW 17 24 9 13 - - 0.0
04/03:30pm 31.6 - - - - WSW 19 28 10 15 - - 0.0
04/03:00pm 32.5 - - - - SW 19 28 10 15 - - 0.0
04/02:30pm 32.9 - - - - SW 20 26 11 14 - - 0.0
04/02:00pm 33.2 - - - - SSW 19 32 10 17 - - 0.0
04/01:30pm 35.5 - - - - SSW 17 26 9 14 - - 0.0
04/01:00pm 35.3 - - - - S 15 28 8 15 - - 0.0
04/12:30pm 34.6 - - - - SE 17 24 9 13 - - 0.0
04/12:00pm 34.1 - - - - SW 7 15 4 8 - - 0.0
04/11:30am 33.5 - - - - ESE 13 24 7 13 - - 0.0
04/11:00am 32.9 - - - - SE 11 19 6 10 - - 0.0
04/10:30am 32.4 - - - - SE 9 17 5 9 - - 0.0
04/10:00am 30.7 - - - - SE 11 17 6 9 - - 0.0
04/09:30am 29.2 - - - - SE 11 17 6 9 - - 0.0
04/09:00am 27.4 - - - - E 9 15 5 8 - - 0.0
04/08:30am 24.5 - - - - ENE 9 13 5 7 - - 0.0
04/08:00am 21.9 - - - - E 9 15 5 8 - - 0.0
04/07:30am 19.7 - - - - SE 11 13 6 7 - - 0.0
04/07:00am 17.6 - - - - ESE 9 15 5 8 - - 0.0
04/06:30am 16.5 - - - - E 9 13 5 7 - - 0.0
04/06:00am 15.6 - - - - ESE 11 13 6 7 - - 0.0
04/05:30am 15.2 - - - - ESE 11 13 6 7 - - 0.0
04/05:00am 14.8 - - - - ENE 7 9 4 5 - - 0.0
04/04:30am 15.3 - - - - NE 9 13 5 7 - - 0.0
04/04:00am 15.6 - - - - ESE 6 13 3 7 - - 0.0
04/03:30am 16.5 - - - - ESE 7 11 4 6 - - 0.0
04/03:00am 18.3 - - - - SSW 9 11 5 6 - - 0.0
04/02:30am 18.3 - - - - SSW 7 9 4 5 - - 0.0
04/02:00am 18.7 - - - - SW 11 13 6 7 - - 0.0
04/01:30am 18.7 - - - - SW 13 15 7 8 - - 0.0
04/01:00am 17.4 - - - - WSW 9 11 5 6 - - 0.0
04/12:30am 16.6 - - - - W 9 9 5 5 - - 0.0
04/12:00am 17.0 - - - - W 9 9 5 5 - - 0.0
 
Date/Time
WST
Temp
°C
App
Temp
°C
Dew
Point
Rel
Hum
%
Delta-T
°C
Wind Press
QNH
hPa
Press
MSL
hPa
Rain
since 9 am
mm
Dir
 
Spd
km/h
Gust
km/h
Spd
kts
Gust
kts
03/11:30pm 17.0 - - - - W 7 9 4 5 - - 0.0
03/11:00pm 17.4 - - - - W 6 6 3 3 - - 0.0
03/10:30pm 16.7 - - - - W 7 9 4 5 - - 0.0
03/10:00pm 17.1 - - - - WNW 6 7 3 4 - - 0.0
03/09:30pm 18.9 - - - - WSW 9 11 5 6 - - 0.0
03/09:00pm 19.2 - - - - SW 9 9 5 5 - - 0.0
03/08:30pm 19.5 - - - - SW 9 11 5 6 - - 0.0
03/08:00pm 19.7 - - - - WSW 7 9 4 5 - - 0.0
03/07:30pm 20.3 - - - - WSW 7 11 4 6 - - 0.0
03/07:00pm 21.3 - - - - W 9 11 5 6 - - 0.0
03/06:30pm 22.1 - - - - W 11 13 6 7 - - 0.0
03/06:00pm 23.2 - - - - W 13 17 7 9 - - 0.0
03/05:30pm 24.5 - - - - W 17 22 9 12 - - 0.0
03/05:00pm 26.1 - - - - WSW 19 24 10 13 - - 0.0
03/04:30pm 27.5 - - - - WSW 17 24 9 13 - - 0.0
03/04:00pm 28.4 - - - - WSW 19 26 10 14 - - 0.0
03/03:30pm 29.0 - - - - WSW 19 24 10 13 - - 0.0
03/03:00pm 30.2 - - - - WSW 17 26 9 14 - - 0.0
03/02:30pm 31.0 - - - - WSW 15 24 8 13 - - 0.0
03/02:00pm 32.2 - - - - W 17 26 9 14 - - 0.0
03/01:30pm 32.0 - - - - WSW 17 24 9 13 - - 0.0
03/01:00pm 32.4 - - - - SW 17 22 9 12 - - 0.0
03/12:30pm 31.7 - - - - SW 13 22 7 12 - - 0.0
03/12:00pm 31.7 - - - - SW 13 20 7 11 - - 0.0
03/11:30am 31.3 - - - - ENE 11 17 6 9 - - 0.0
03/11:00am 29.7 - - - - ESE 9 17 5 9 - - 0.0
03/10:30am 28.9 - - - - S 9 15 5 8 - - 0.0
03/10:00am 28.2 - - - - ESE 9 17 5 9 - - 0.0
03/09:30am 27.1 - - - - SE 9 17 5 9 - - 0.0
03/09:00am 25.9 - - - - SE 9 15 5 8 - - 0.0
03/08:30am 24.7 - - - - S 7 13 4 7 - - 0.0
03/08:00am 23.1 - - - - SE 11 15 6 8 - - 0.0
03/07:30am 21.5 - - - - ESE 2 7 1 4 - - 0.0
03/07:00am 18.1 - - - - E 9 11 5 6 - - 0.0
03/06:30am 16.4 - - - - E 9 11 5 6 - - 0.0
03/06:00am 15.7 - - - - ENE 9 13 5 7 - - 0.0
03/05:30am 14.6 - - - - E 9 13 5 7 - - 0.0
03/05:00am 13.7 - - - - E 9 11 5 6 - - 0.0
03/04:30am 13.7 - - - - ESE 9 13 5 7 - - 0.0
03/04:00am 15.2 - - - - W 7 9 4 5 - - 0.0
03/03:30am 14.5 - - - - NW 7 7 4 4 - - 0.0
03/03:00am 15.8 - - - - NW 7 7 4 4 - - 0.0
03/02:30am 16.0 - - - - N 7 9 4 5 - - 0.0
03/02:00am 14.9 - - - - N 9 9 5 5 - - 0.0
03/01:30am 16.0 - - - - N 11 13 6 7 - - 0.0
03/01:00am 15.9 - - - - N 9 9 5 5 - - 0.0
03/12:30am 16.0 - - - - NNW 7 11 4 6 - - 0.0
03/12:00am 16.1 - - - - N 9 11 5 6 - - 0.0
 
Date/Time
WST
Temp
°C
App
Temp
°C
Dew
Point
Rel
Hum
%
Delta-T
°C
Wind Press
QNH
hPa
Press
MSL
hPa
Rain
since 9 am
mm
Dir
 
Spd
km/h
Gust
km/h
Spd
kts
Gust
kts
02/11:30pm 15.7 - - - - N 9 11 5 6 - - 0.0
02/11:00pm 16.3 - - - - N 11 11 6 6 - - 0.0
02/10:30pm 16.6 - - - - N 9 9 5 5 - - 0.0
02/10:00pm 17.6 - - - - N 11 11 6 6 - - 0.0
02/09:30pm 17.5 - - - - NNE 9 11 5 6 - - 0.0
02/09:00pm 17.5 - - - - NNW 7 9 4 5 - - 0.0
02/08:30pm 17.8 - - - - NW 6 7 3 4 - - 0.0
02/08:00pm 18.2 - - - - WNW 6 9 3 5 - - 0.0
02/07:30pm 18.9 - - - - WNW 6 9 3 5 - - 0.0
02/07:00pm 20.2 - - - - NW 9 13 5 7 - - 0.0
02/06:30pm 20.9 - - - - WNW 9 11 5 6 - - 0.0
02/06:00pm 22.7 - - - - WNW 13 17 7 9 - - 0.0
02/05:30pm 24.0 - - - - WNW 15 22 8 12 - - 0.0
02/05:00pm 25.2 - - - - WNW 20 32 11 17 - - 0.0
02/04:30pm 26.1 - - - - W 20 32 11 17 - - 0.0
02/04:00pm 26.9 - - - - W 19 30 10 16 - - 0.0
02/03:30pm 28.0 - - - - W 22 32 12 17 - - 0.0
02/03:00pm 28.4 - - - - W 20 32 11 17 - - 0.0
02/02:30pm 28.3 - - - - WSW 20 32 11 17 - - 0.0
02/02:00pm 28.9 - - - - W 20 32 11 17 - - 0.0
02/01:30pm 28.6 - - - - W 20 33 11 18 - - 0.0
02/01:00pm 29.2 - - - - W 19 28 10 15 - - 0.0
02/12:30pm 29.1 - - - - WNW 17 22 9 12 - - 0.0
02/12:00pm 29.2 - - - - W 19 28 10 15 - - 0.0
02/11:30am 28.5 - - - - SW 17 24 9 13 - - 0.0
02/11:00am 28.7 - - - - WSW 20 32 11 17 - - 0.0
02/10:30am 29.1 - - - - NE 9 15 5 8 - - 0.0
02/10:00am 28.2 - - - - SE 7 15 4 8 - - 0.0
02/09:30am 26.8 - - - - E 7 17 4 9 - - 0.0
02/09:00am 26.1 - - - - ESE 9 15 5 8 - - 0.0
02/08:30am 25.1 - - - - SSE 9 17 5 9 - - 0.0
02/08:00am 24.1 - - - - ESE 2 9 1 5 - - 0.0
02/07:30am 21.9 - - - - ENE 4 6 2 3 - - 0.0

Other Formats:

Comma delimited format used in spreadsheet applications
http://www.bom.gov.au/fwo/IDW60801/IDW60801.95204.axf

JavaScript Object Notation format (JSON) in row-major order
http://www.bom.gov.au/fwo/IDW60801/IDW60801.95204.json